Moeda, Brazil
Current Conditions -  °F | °C
As of 7:00 PM on Monday 22 Dec 2014 (Local Time) from SBBH Reporting Station
Broken Clouds Broken Clouds  
Wind Chill: 82°   Ceiling: 10000
Heat Index: 84°   Visibility: 6mi
Dew Point: 64°   Wind: 3mph
Humidity: 54%   Direction: 320°NW
Pressure: 29.94"   Gusts: NA
Location:  20.33°S, 44.05°W
Report Text: SBBH 222100Z 32003KT 9999 SCT045 BKN100 28/18 Q1014
Loading
Personal Weather Stations






























Interactive Weather Map New forecast layout! Learn more

10-Day Weather Forecast

Advertisements
Track Severe Weather on mobile